Time;durP1;ratioP1;P1;durP2;ratioP2;P2;SDS_P1;SDS_P2;PMS_P1;PMS_P2;Temp;Humidity;BMP_temperature;BMP_pressure;BME280_temperature;BME280_humidity;BME280_pressure;Samples;Min_cycle;Max_cycle;Signal;HPM_P1;HPM_P2
2024/01/02 00:01:29;;;;;;;17.70;2.90;;;5.90;99.90;;;;;;4986752;28;20453;-84
2024/01/02 00:03:54;;;;;;;2.80;1.58;;;5.90;99.90;;;;;;4989439;28;20047;-78
2024/01/02 00:06:20;;;;;;;1.23;1.13;;;6.00;99.90;;;;;;4992579;28;20385;-85
2024/01/02 00:08:46;;;;;;;2.17;1.45;;;6.00;99.90;;;;;;4985122;28;20041;-88
2024/01/02 00:11:12;;;;;;;2.15;1.70;;;6.00;99.90;;;;;;5002155;28;20396;-85
2024/01/02 00:13:37;;;;;;;3.35;1.20;;;6.00;99.90;;;;;;4984817;28;20058;-86
2024/01/02 00:16:03;;;;;;;5.20;1.90;;;6.00;99.90;;;;;;4986089;28;20043;-84
2024/01/02 00:18:29;;;;;;;2.80;1.55;;;6.00;99.90;;;;;;4998145;28;20138;-84
2024/01/02 00:20:55;;;;;;;2.90;1.35;;;6.00;99.90;;;;;;4983882;28;20117;-84
2024/01/02 00:23:21;;;;;;;5.20;1.80;;;6.00;99.90;;;;;;4984355;28;20212;-84
2024/01/02 00:25:47;;;;;;;2.78;1.70;;;6.00;99.90;;;;;;4998841;28;20062;-88
2024/01/02 00:28:13;;;;;;;4.13;1.38;;;6.00;99.90;;;;;;4974783;28;20108;-79
2024/01/02 00:30:40;;;;;;;1.80;1.55;;;6.00;99.90;;;;;;4986074;28;20129;-84
2024/01/02 00:33:06;;;;;;;5.07;1.65;;;6.00;99.90;;;;;;4985181;28;20101;-81
2024/01/02 00:35:32;;;;;;;2.25;1.58;;;6.00;99.90;;;;;;4991401;28;20511;-87
2024/01/02 00:37:57;;;;;;;2.72;1.85;;;6.00;99.90;;;;;;4991051;28;20427;-85
2024/01/02 00:40:23;;;;;;;9.38;1.60;;;6.00;99.90;;;;;;4972330;28;20054;-87
2024/01/02 00:42:49;;;;;;;1.30;1.20;;;6.00;99.90;;;;;;4974777;28;20125;-85
2024/01/02 00:45:14;;;;;;;2.65;2.15;;;6.00;99.90;;;;;;4979937;28;20500;-83
2024/01/02 00:47:40;;;;;;;3.28;1.00;;;6.10;99.90;;;;;;4983778;28;20054;-85
2024/01/02 00:50:06;;;;;;;2.35;1.23;;;6.10;99.90;;;;;;4974353;28;20041;-89
2024/01/02 00:52:33;;;;;;;2.35;1.10;;;6.10;99.90;;;;;;5002925;28;20042;-89
2024/01/02 00:54:58;;;;;;;5.05;1.30;;;6.10;99.90;;;;;;5002212;28;20412;-89
2024/01/02 00:57:25;;;;;;;2.45;1.17;;;6.10;99.90;;;;;;4986225;28;20038;-86
2024/01/02 00:59:51;;;;;;;1.48;1.27;;;6.10;99.90;;;;;;4988280;28;20054;-84
2024/01/02 01:02:17;;;;;;;1.65;0.93;;;6.10;99.90;;;;;;4992681;28;20054;-85
2024/01/02 01:04:43;;;;;;;2.05;0.80;;;6.10;99.90;;;;;;4995784;28;20053;-87
2024/01/02 01:07:09;;;;;;;2.90;1.63;;;6.10;99.90;;;;;;4990063;28;20112;-90
2024/01/02 01:09:35;;;;;;;6.38;1.45;;;6.10;99.90;;;;;;4987836;28;20061;-80
2024/01/02 01:12:02;;;;;;;5.82;1.25;;;6.10;99.90;;;;;;4996674;28;20038;-87
2024/01/02 01:14:27;;;;;;;11.82;2.33;;;6.10;99.90;;;;;;4997529;28;20054;-82
2024/01/02 01:16:53;;;;;;;0.35;0.35;;;6.10;99.90;;;;;;4983391;28;20061;-83
2024/01/02 01:19:18;;;;;;;6.00;1.40;;;6.20;99.90;;;;;;4984395;28;20050;-89
2024/01/02 01:21:44;;;;;;;5.28;1.75;;;6.20;99.90;;;;;;4966544;28;20053;-80
2024/01/02 01:24:10;;;;;;;9.25;1.20;;;6.20;99.90;;;;;;4985210;28;20479;-92
2024/01/02 01:26:35;;;;;;;11.82;1.65;;;6.20;99.90;;;;;;4989783;28;20054;-82
2024/01/02 01:29:02;;;;;;;2.15;1.58;;;6.20;99.90;;;;;;4985182;28;20396;-85
2024/01/02 01:31:27;;;;;;;2.15;1.88;;;6.20;99.90;;;;;;4967586;28;20057;-84
2024/01/02 01:33:53;;;;;;;2.90;2.00;;;6.20;99.90;;;;;;4990356;28;20042;-87
2024/01/02 01:36:18;;;;;;;6.70;1.55;;;6.20;99.90;;;;;;4999781;28;20042;-89
2024/01/02 01:38:44;;;;;;;4.00;1.05;;;6.20;99.90;;;;;;5001932;28;20073;-88
2024/01/02 01:41:09;;;;;;;2.55;1.15;;;6.20;99.90;;;;;;5001373;28;20672;-82
2024/01/02 01:43:35;;;;;;;7.20;1.85;;;6.20;99.90;;;;;;4995031;28;20081;-83
2024/01/02 01:46:01;;;;;;;1.90;0.93;;;6.20;99.90;;;;;;4999656;28;20519;-91
2024/01/02 01:48:27;;;;;;;11.57;1.27;;;6.30;99.90;;;;;;5002722;28;20048;-91
2024/01/02 01:50:54;;;;;;;5.07;1.63;;;6.20;99.90;;;;;;5002268;28;20050;-91
2024/01/02 01:53:20;;;;;;;8.02;1.10;;;6.30;99.90;;;;;;5001668;28;20129;-86
2024/01/02 01:55:46;;;;;;;1.05;0.80;;;6.30;99.90;;;;;;5001231;28;20045;-83
2024/01/02 01:58:12;;;;;;;0.95;0.68;;;6.30;99.90;;;;;;5002262;28;20038;-85
2024/01/02 02:00:38;;;;;;;1.52;1.05;;;6.30;99.90;;;;;;4997982;28;20058;-88
2024/01/02 02:03:05;;;;;;;1.98;1.23;;;6.30;99.90;;;;;;4990499;28;20060;-89
2024/01/02 02:05:32;;;;;;;6.55;1.75;;;6.40;99.90;;;;;;5002073;28;20038;-84
2024/01/02 02:07:58;;;;;;;1.73;1.63;;;6.40;99.90;;;;;;4995894;28;20053;-88
2024/01/02 02:10:24;;;;;;;0.70;0.70;;;6.40;99.90;;;;;;4991162;28;20038;-84
2024/01/02 02:12:50;;;;;;;1.20;1.10;;;6.40;99.90;;;;;;4994797;28;20042;-80
2024/01/02 02:15:16;;;;;;;3.42;2.00;;;6.40;99.90;;;;;;4984125;28;20050;-83
2024/01/02 02:17:42;;;;;;;1.95;1.35;;;6.40;99.90;;;;;;4989576;28;20045;-82
2024/01/02 02:20:08;;;;;;;3.45;2.65;;;6.40;99.90;;;;;;5001328;28;20045;-89
2024/01/02 02:22:35;;;;;;;2.42;1.50;;;6.40;99.90;;;;;;4984959;28;20124;-89
2024/01/02 02:25:06;;;;;;;5.10;0.98;;;6.40;99.90;;;;;;5001477;28;20041;-85
2024/01/02 02:27:33;;;;;;;0.75;0.75;;;6.40;99.90;;;;;;4994473;28;20049;-89
2024/01/02 02:29:59;;;;;;;2.30;0.75;;;6.40;99.90;;;;;;4982706;28;20045;-87
2024/01/02 02:32:24;;;;;;;0.57;0.57;;;6.40;99.90;;;;;;4972918;28;20448;-84
2024/01/02 02:34:50;;;;;;;2.25;1.52;;;6.40;99.90;;;;;;4986358;28;20456;-81
2024/01/02 02:37:16;;;;;;;1.38;1.00;;;6.40;99.90;;;;;;4991516;28;20062;-89
2024/01/02 02:39:41;;;;;;;2.08;1.25;;;6.40;99.90;;;;;;5000677;28;20038;-90
2024/01/02 02:42:07;;;;;;;1.88;1.27;;;6.40;99.90;;;;;;5003131;28;20576;-89
2024/01/02 02:44:33;;;;;;;3.13;1.38;;;6.40;99.90;;;;;;5002229;28;20026;-81
2024/01/02 02:46:59;;;;;;;6.13;1.77;;;6.40;99.90;;;;;;4976347;28;20038;-84
2024/01/02 02:49:25;;;;;;;5.80;1.50;;;6.50;99.90;;;;;;5003531;28;20049;-86
2024/01/02 02:51:51;;;;;;;1.50;1.15;;;6.50;99.90;;;;;;5002255;28;20065;-88
2024/01/02 02:54:17;;;;;;;7.40;1.00;;;6.50;99.90;;;;;;4988089;28;20050;-90
2024/01/02 02:56:43;;;;;;;2.92;1.17;;;6.50;99.90;;;;;;4996690;28;20038;-79
2024/01/02 02:59:12;;;;;;;0.93;0.82;;;6.50;99.90;;;;;;4987909;28;20137;-81
2024/01/02 03:01:38;;;;;;;1.90;1.52;;;6.50;99.90;;;;;;4978341;28;20267;-83
2024/01/02 03:04:04;;;;;;;0.90;0.80;;;6.50;99.90;;;;;;4998275;28;20540;-81
2024/01/02 03:06:30;;;;;;;4.30;0.93;;;6.50;99.90;;;;;;5003200;28;20068;-85
2024/01/02 03:08:55;;;;;;;2.20;1.55;;;6.50;99.90;;;;;;4989264;28;20046;-88
2024/01/02 03:11:21;;;;;;;1.00;0.90;;;6.50;99.90;;;;;;4998865;28;20125;-90
2024/01/02 03:13:47;;;;;;;4.07;0.93;;;6.50;99.90;;;;;;5003344;28;20180;-85
2024/01/02 03:16:15;;;;;;;2.40;1.33;;;6.50;99.90;;;;;;5005139;28;20046;-84
2024/01/02 03:18:40;;;;;;;1.52;0.77;;;6.60;99.90;;;;;;4990081;28;20050;-81
2024/01/02 03:21:13;;;;;;;2.72;0.77;;;6.60;99.90;;;;;;5004272;28;20053;-81
2024/01/02 03:23:38;;;;;;;;;;;6.50;99.90;;;;;;4978318;28;20038;-81
2024/01/02 03:26:04;;;;;;;5.78;0.95;;;6.60;99.90;;;;;;4995570;28;20401;-86
2024/01/02 03:28:31;;;;;;;1.02;1.00;;;6.60;99.90;;;;;;4988577;28;20497;-88
2024/01/02 03:30:57;;;;;;;0.80;0.80;;;6.60;99.90;;;;;;4988813;28;20088;-90
2024/01/02 03:33:23;;;;;;;0.88;0.88;;;6.60;99.90;;;;;;4977115;28;20026;-87
2024/01/02 03:35:48;;;;;;;2.47;1.20;;;6.60;99.90;;;;;;5005432;28;20108;-83
2024/01/02 03:38:15;;;;;;;4.25;1.05;;;6.50;99.90;;;;;;4997694;28;20751;-78
2024/01/02 03:40:40;;;;;;;1.05;1.02;;;6.50;99.90;;;;;;4997977;28;20517;-82
2024/01/02 03:43:06;;;;;;;1.08;1.00;;;6.60;99.90;;;;;;5004508;28;20041;-85
2024/01/02 03:45:32;;;;;;;3.15;1.05;;;6.50;99.90;;;;;;5003068;28;20042;-90
2024/01/02 03:47:58;;;;;;;1.27;1.10;;;6.50;99.90;;;;;;5002496;28;20060;-89
2024/01/02 03:50:24;;;;;;;2.72;0.82;;;6.50;99.90;;;;;;5002936;28;20046;-82
2024/01/02 03:52:50;;;;;;;1.45;0.57;;;6.50;99.90;;;;;;5004502;28;20637;-84
2024/01/02 03:55:15;;;;;;;4.78;1.02;;;6.60;99.90;;;;;;4966085;28;20449;-86
2024/01/02 03:57:41;;;;;;;1.75;1.45;;;6.60;99.90;;;;;;4977827;28;20116;-90
2024/01/02 04:00:08;;;;;;;4.40;1.00;;;6.50;99.90;;;;;;4987812;28;20081;-91
2024/01/02 04:02:34;;;;;;;2.20;0.95;;;6.50;99.90;;;;;;4990103;28;20046;-92
2024/01/02 04:04:59;;;;;;;1.65;1.10;;;6.50;99.90;;;;;;4982355;28;20076;-83
2024/01/02 04:07:25;;;;;;;0.68;0.68;;;6.50;99.90;;;;;;4988458;28;20449;-82
2024/01/02 04:09:51;;;;;;;3.47;1.27;;;6.50;99.90;;;;;;4971056;28;20046;-81
2024/01/02 04:12:16;;;;;;;2.28;1.20;;;6.60;99.90;;;;;;4988727;28;20046;-87
2024/01/02 04:14:42;;;;;;;3.15;1.10;;;6.50;99.90;;;;;;4968486;28;20053;-91
2024/01/02 04:17:08;;;;;;;1.40;1.20;;;6.50;99.90;;;;;;4994835;28;20060;-88
2024/01/02 04:19:34;;;;;;;1.35;1.00;;;6.60;99.90;;;;;;5002690;28;20057;-83
2024/01/02 04:21:59;;;;;;;1.38;1.15;;;6.50;99.90;;;;;;4976413;28;20042;-86
2024/01/02 04:24:25;;;;;;;2.40;0.75;;;6.60;99.90;;;;;;4989573;28;20058;-91
2024/01/02 04:26:51;;;;;;;0.90;0.90;;;6.50;99.90;;;;;;4992915;28;20496;-91
2024/01/02 04:29:17;;;;;;;1.88;1.20;;;6.50;99.90;;;;;;4971483;28;20039;-91
2024/01/02 04:31:43;;;;;;;16.83;1.73;;;6.50;99.90;;;;;;4993252;28;20615;-85
2024/01/02 04:34:08;;;;;;;0.70;0.70;;;6.60;99.90;;;;;;4995206;28;20133;-85
2024/01/02 04:36:34;;;;;;;4.10;1.08;;;6.60;99.90;;;;;;5002588;28;20425;-86
2024/01/02 04:38:59;;;;;;;1.98;1.77;;;6.50;99.90;;;;;;5002434;28;20045;-90
2024/01/02 04:41:25;;;;;;;1.15;1.00;;;6.50;99.90;;;;;;4990466;28;20105;-91
2024/01/02 04:43:51;;;;;;;1.90;1.45;;;6.60;99.90;;;;;;4993664;28;20040;-85
2024/01/02 04:46:16;;;;;;;2.28;1.38;;;6.60;99.90;;;;;;4987909;28;20381;-82
2024/01/02 04:48:42;;;;;;;0.75;0.73;;;6.60;99.90;;;;;;5004100;28;20137;-82
2024/01/02 04:51:07;;;;;;;3.50;1.45;;;6.60;99.90;;;;;;5001239;28;20104;-90
2024/01/02 04:53:33;;;;;;;1.35;1.25;;;6.60;99.90;;;;;;4987685;28;20046;-87
2024/01/02 04:55:58;;;;;;;1.88;1.35;;;6.60;99.90;;;;;;4983572;28;20042;-86
2024/01/02 04:58:24;;;;;;;0.93;0.85;;;6.60;99.90;;;;;;4984477;28;20053;-82
2024/01/02 05:00:50;;;;;;;1.13;1.10;;;6.60;99.90;;;;;;4994755;28;20124;-83
2024/01/02 05:03:15;;;;;;;1.45;1.30;;;6.60;99.90;;;;;;4985959;28;20621;-91
2024/01/02 05:05:41;;;;;;;1.25;1.15;;;6.60;99.90;;;;;;4989156;28;20034;-90
2024/01/02 05:08:06;;;;;;;3.20;1.92;;;6.60;99.90;;;;;;5002525;28;20054;-85
2024/01/02 05:10:32;;;;;;;2.28;1.58;;;6.60;99.90;;;;;;4999224;28;20437;-82
2024/01/02 05:12:58;;;;;;;1.67;0.88;;;6.60;99.90;;;;;;5002859;28;20057;-87
2024/01/02 05:15:24;;;;;;;1.25;1.15;;;6.60;99.90;;;;;;5003174;28;20496;-86
2024/01/02 05:17:49;;;;;;;3.03;0.77;;;6.60;99.90;;;;;;5003366;28;20108;-81
2024/01/02 05:20:16;;;;;;;0.82;0.82;;;6.60;99.90;;;;;;4995311;28;20046;-83
2024/01/02 05:22:41;;;;;;;1.48;1.05;;;6.60;99.90;;;;;;4970706;28;20123;-88
2024/01/02 05:25:09;;;;;;;3.03;1.88;;;6.60;99.90;;;;;;4984116;28;20050;-84
2024/01/02 05:27:34;;;;;;;1.30;1.20;;;6.60;99.90;;;;;;4984975;28;20053;-82
2024/01/02 05:30:00;;;;;;;1.65;1.13;;;6.60;99.90;;;;;;4985923;28;20659;-83
2024/01/02 05:32:26;;;;;;;0.82;0.60;;;6.60;99.90;;;;;;4984025;28;20061;-91
2024/01/02 05:34:52;;;;;;;0.52;0.52;;;6.60;99.90;;;;;;4975129;28;20038;-91
2024/01/02 05:37:18;;;;;;;1.55;1.13;;;6.60;99.90;;;;;;4973962;28;20046;-84
2024/01/02 05:39:43;;;;;;;1.65;0.93;;;6.60;99.90;;;;;;4983773;28;20047;-86
2024/01/02 05:42:09;;;;;;;3.90;0.98;;;6.60;99.90;;;;;;4970152;28;20548;-86
2024/01/02 05:44:35;;;;;;;3.35;0.93;;;6.60;99.90;;;;;;4984844;28;20543;-87
2024/01/02 05:47:00;;;;;;;7.70;0.88;;;6.60;99.90;;;;;;4989437;28;20606;-91
2024/01/02 05:49:26;;;;;;;0.52;0.47;;;6.60;99.90;;;;;;4996503;28;20054;-92
2024/01/02 05:51:51;;;;;;;1.30;0.47;;;6.70;99.90;;;;;;5001921;28;20046;-87
2024/01/02 05:54:17;;;;;;;0.30;0.30;;;6.60;99.90;;;;;;5002478;28;20137;-83
2024/01/02 05:56:43;;;;;;;0.47;0.47;;;6.70;99.90;;;;;;5003713;28;20037;-87
2024/01/02 05:59:08;;;;;;;0.77;0.60;;;6.70;99.90;;;;;;5001526;28;20034;-91
2024/01/02 06:01:34;;;;;;;0.82;0.60;;;6.70;99.90;;;;;;4991444;28;20038;-88
2024/01/02 06:04:00;;;;;;;1.00;0.73;;;6.70;99.90;;;;;;5001484;28;20138;-89
2024/01/02 06:06:26;;;;;;;1.30;1.13;;;6.70;99.90;;;;;;5003040;28;20117;-80
2024/01/02 06:08:51;;;;;;;1.17;0.55;;;6.70;99.90;;;;;;5002041;28;20053;-82
2024/01/02 06:11:17;;;;;;;0.73;0.70;;;6.70;99.90;;;;;;4991701;28;20046;-88
2024/01/02 06:13:42;;;;;;;0.28;0.28;;;6.70;99.90;;;;;;4982752;28;20058;-92
2024/01/02 06:16:11;;;;;;;0.43;0.43;;;6.70;99.90;;;;;;4976848;28;20400;-91
2024/01/02 06:18:37;;;;;;;0.52;0.45;;;6.70;99.90;;;;;;4985953;28;20280;-95
2024/01/02 06:21:04;;;;;;;0.30;0.30;;;6.70;99.90;;;;;;4982102;28;20105;-86
2024/01/02 06:23:33;;;;;;;5.40;0.55;;;6.70;99.90;;;;;;4972813;28;20047;-88
2024/01/02 06:25:59;;;;;;;1.35;1.08;;;6.80;99.90;;;;;;4981165;28;20447;-81
2024/01/02 06:28:25;;;;;;;0.25;0.25;;;6.80;99.90;;;;;;4981594;28;20039;-83
2024/01/02 06:30:50;;;;;;;0.98;0.85;;;6.80;99.90;;;;;;5014331;28;20108;-82
2024/01/02 06:33:16;;;;;;;1.05;0.80;;;6.80;99.90;;;;;;4985072;28;20066;-91
2024/01/02 06:35:42;;;;;;;0.98;0.47;;;6.80;99.90;;;;;;4983303;28;20054;-78
2024/01/02 06:38:09;;;;;;;2.00;0.93;;;6.80;99.90;;;;;;4984932;28;20099;-86
2024/01/02 06:40:37;;;;;;;0.75;0.75;;;6.80;99.90;;;;;;5002668;28;20125;-86
2024/01/02 06:43:04;;;;;;;0.68;0.50;;;6.80;99.90;;;;;;5000347;28;20050;-83
2024/01/02 06:45:30;;;;;;;0.47;0.38;;;6.80;99.90;;;;;;5003618;28;20042;-80
2024/01/02 06:47:56;;;;;;;1.15;1.00;;;6.80;99.90;;;;;;4988656;28;20104;-90
2024/01/02 06:50:21;;;;;;;0.50;0.40;;;6.90;99.90;;;;;;4983323;28;20093;-90
2024/01/02 06:52:47;;;;;;;0.55;0.55;;;6.90;99.90;;;;;;4990128;28;20125;-88
2024/01/02 06:55:13;;;;;;;1.10;1.05;;;6.90;99.90;;;;;;4996821;28;20144;-82
2024/01/02 06:57:39;;;;;;;1.38;0.40;;;6.90;99.90;;;;;;4992982;28;20042;-84
2024/01/02 07:00:06;;;;;;;1.15;0.60;;;6.90;99.90;;;;;;4993700;28;20063;-82
2024/01/02 07:02:32;;;;;;;1.40;0.52;;;6.90;99.90;;;;;;4989153;28;20042;-86
2024/01/02 07:04:58;;;;;;;0.73;0.63;;;6.90;99.90;;;;;;4976018;28;20109;-86
2024/01/02 07:07:24;;;;;;;2.17;1.52;;;6.90;99.90;;;;;;4976445;28;20054;-88
2024/01/02 07:09:50;;;;;;;1.65;0.80;;;7.00;99.90;;;;;;4981602;28;20050;-84
2024/01/02 07:12:15;;;;;;;0.60;0.55;;;7.00;99.90;;;;;;4997928;28;20057;-85
2024/01/02 07:14:41;;;;;;;1.10;0.57;;;7.00;99.90;;;;;;4974139;28;20548;-83
2024/01/02 07:17:07;;;;;;;1.23;0.93;;;7.00;99.90;;;;;;4971564;28;20178;-83
2024/01/02 07:19:33;;;;;;;1.00;0.88;;;7.10;99.90;;;;;;4984079;28;20173;-82
2024/01/02 07:21:59;;;;;;;1.05;0.70;;;7.10;99.90;;;;;;4999583;28;20112;-84
2024/01/02 07:24:25;;;;;;;1.48;0.70;;;7.20;99.90;;;;;;4984748;28;20533;-81
2024/01/02 07:26:50;;;;;;;0.70;0.60;;;7.20;99.90;;;;;;4983597;28;20065;-81
2024/01/02 07:29:16;;;;;;;2.42;0.90;;;7.30;99.90;;;;;;4987014;28;20560;-83
2024/01/02 07:31:42;;;;;;;2.33;1.63;;;7.30;99.90;;;;;;4986315;28;20038;-84
2024/01/02 07:34:07;;;;;;;2.95;0.68;;;7.40;99.90;;;;;;4993646;28;20053;-84
2024/01/02 07:36:33;;;;;;;3.97;1.48;;;7.50;99.90;;;;;;4999539;28;20415;-84
2024/01/02 07:38:58;;;;;;;4.90;1.10;;;7.60;99.90;;;;;;5004272;28;20104;-81
2024/01/02 07:41:24;;;;;;;3.55;0.77;;;7.70;99.90;;;;;;4999483;28;20556;-82
2024/01/02 07:43:50;;;;;;;4.07;0.80;;;7.70;99.90;;;;;;4986115;28;20128;-79
2024/01/02 07:46:16;;;;;;;2.72;0.82;;;7.80;99.90;;;;;;4989489;28;20042;-85
2024/01/02 07:48:42;;;;;;;2.50;0.70;;;7.90;99.90;;;;;;5003794;28;20046;-84
2024/01/02 07:51:07;;;;;;;6.65;1.23;;;8.00;99.90;;;;;;5001391;28;20756;-81
2024/01/02 07:53:33;;;;;;;3.95;0.98;;;8.10;99.90;;;;;;5001818;28;20069;-81
2024/01/02 07:56:01;;;;;;;8.68;1.35;;;8.20;99.90;;;;;;5003770;28;20116;-83
2024/01/02 07:58:27;;;;;;;1.50;1.15;;;8.30;99.90;;;;;;4987580;28;20061;-81
2024/01/02 08:00:52;;;;;;;7.97;1.33;;;8.30;99.90;;;;;;4989727;28;20046;-82
2024/01/02 08:03:18;;;;;;;4.30;1.58;;;8.40;99.90;;;;;;4996829;28;20052;-84
2024/01/02 08:05:43;;;;;;;5.68;1.10;;;8.50;99.90;;;;;;4985150;28;20086;-81
2024/01/02 08:08:09;;;;;;;4.57;1.10;;;8.50;99.90;;;;;;5000731;28;20068;-81
2024/01/02 08:10:35;;;;;;;5.53;1.25;;;8.50;99.90;;;;;;5003622;28;20042;-83
2024/01/02 08:13:00;;;;;;;5.63;1.70;;;8.50;99.90;;;;;;4992874;28;20416;-79
2024/01/02 08:15:26;;;;;;;9.35;2.47;;;8.60;99.90;;;;;;4984126;28;20090;-83
2024/01/02 08:17:51;;;;;;;8.32;0.90;;;8.60;99.90;;;;;;4983793;28;20031;-82
2024/01/02 08:20:17;;;;;;;6.65;1.35;;;8.60;99.90;;;;;;4985808;28;20488;-80
2024/01/02 08:22:43;;;;;;;5.00;1.55;;;8.70;99.90;;;;;;4996025;28;20656;-82
2024/01/02 08:25:09;;;;;;;7.13;2.47;;;8.70;99.90;;;;;;5003067;28;20050;-84
2024/01/02 08:27:35;;;;;;;5.20;1.42;;;8.70;99.90;;;;;;4997696;28;20053;-83
2024/01/02 08:30:01;;;;;;;7.10;1.27;;;8.70;99.90;;;;;;5002224;28;20038;-84
2024/01/02 08:32:28;;;;;;;6.85;2.85;;;8.70;99.90;;;;;;5002955;28;20046;-83
2024/01/02 08:34:54;;;;;;;2.58;1.55;;;8.80;99.90;;;;;;4970737;28;20046;-81
2024/01/02 08:37:19;;;;;;;4.32;1.10;;;8.80;99.90;;;;;;4983760;28;20046;-80
2024/01/02 08:39:45;;;;;;;4.72;1.73;;;8.80;99.90;;;;;;4987086;28;20045;-83
2024/01/02 08:42:11;;;;;;;5.32;1.35;;;8.80;99.90;;;;;;4985425;28;20065;-82
2024/01/02 08:44:36;;;;;;;3.63;1.30;;;8.90;99.90;;;;;;4998130;28;20049;-81
2024/01/02 08:47:02;;;;;;;6.70;1.80;;;8.90;99.90;;;;;;5004028;28;20695;-81
2024/01/02 08:49:27;;;;;;;7.40;1.88;;;8.90;99.90;;;;;;5002939;28;20423;-80
2024/01/02 08:51:53;;;;;;;6.90;1.23;;;8.90;99.90;;;;;;4991562;28;20042;-83
2024/01/02 08:54:18;;;;;;;8.20;1.48;;;9.00;99.90;;;;;;4999277;28;20046;-83
2024/01/02 08:56:44;;;;;;;8.32;1.52;;;9.00;99.90;;;;;;5001614;28;20042;-81
2024/01/02 08:59:10;;;;;;;5.88;1.15;;;9.00;99.90;;;;;;5002250;28;20479;-82
2024/01/02 09:01:35;;;;;;;6.30;1.58;;;9.00;99.90;;;;;;4984676;28;20077;-81
2024/01/02 09:04:01;;;;;;;3.88;1.05;;;9.00;99.90;;;;;;4994643;28;20045;-80
2024/01/02 09:06:27;;;;;;;13.32;1.70;;;9.00;99.90;;;;;;5000478;28;20591;-83
2024/01/02 09:08:52;;;;;;;6.95;1.58;;;9.10;99.90;;;;;;4992890;28;20050;-80
2024/01/02 09:11:18;;;;;;;6.85;1.13;;;9.10;99.90;;;;;;4991859;28;20081;-80
2024/01/02 09:13:44;;;;;;;5.28;1.30;;;9.10;99.90;;;;;;4984587;28;20066;-82
2024/01/02 09:16:10;;;;;;;11.50;1.83;;;9.10;99.90;;;;;;5002457;28;20057;-81
2024/01/02 09:18:35;;;;;;;13.80;2.00;;;9.10;99.90;;;;;;5001253;28;20070;-82
2024/01/02 09:21:01;;;;;;;9.38;1.75;;;9.10;99.90;;;;;;4997786;28;20053;-83
2024/01/02 09:23:26;;;;;;;6.80;1.58;;;9.10;99.90;;;;;;4985777;28;20050;-83
2024/01/02 09:25:57;;;;;;;9.68;1.55;;;9.10;99.90;;;;;;5031137;28;20034;-80
2024/01/02 09:28:22;;;;;;;4.22;1.38;;;9.20;99.90;;;;;;4992338;28;20124;-82
2024/01/02 09:30:48;;;;;;;9.80;2.05;;;9.20;99.90;;;;;;4986426;28;20089;-80
2024/01/02 09:33:14;;;;;;;12.98;1.85;;;9.20;99.90;;;;;;4987560;28;20034;-81
2024/01/02 09:35:41;;;;;;;7.82;1.98;;;9.20;99.90;;;;;;4975906;28;20489;-84
2024/01/02 09:38:07;;;;;;;4.97;1.88;;;9.20;99.90;;;;;;5000173;28;20085;-83
2024/01/02 09:40:59;;;;;;;6.72;1.92;;;9.20;99.90;;;;;;5000446;28;20077;-80
2024/01/02 09:43:47;;;;;;;3.47;1.13;;;9.20;99.90;;;;;;4990546;28;20058;-82
2024/01/02 09:46:38;;;;;;;4.47;1.80;;;9.20;99.90;;;;;;4965965;28;20049;-84
2024/01/02 09:49:26;;;;;;;5.47;2.08;;;9.20;99.90;;;;;;4983171;28;20054;-81
2024/01/02 09:52:03;;;;;;;3.55;1.63;;;9.20;99.90;;;;;;4985555;28;20038;-81
2024/01/02 09:54:51;;;;;;;12.63;2.80;;;9.30;99.90;;;;;;4982513;28;20081;-83
2024/01/02 09:57:26;;;;;;;11.70;2.97;;;9.20;99.90;;;;;;4989544;28;20258;-80
2024/01/02 10:00:11;;;;;;;6.35;1.98;;;9.20;99.90;;;;;;4971437;28;20056;-83
2024/01/02 10:03:15;;;;;;;3.75;1.02;;;9.20;99.90;;;;;;4987649;28;20038;-82
2024/01/02 10:06:10;;;;;;;7.45;2.17;;;9.30;99.90;;;;;;4980833;28;20533;-84
2024/01/02 10:08:59;;;;;;;15.07;1.95;;;9.30;99.90;;;;;;4964826;28;20054;-86
2024/01/02 10:11:56;;;;;;;5.25;2.28;;;9.30;99.90;;;;;;4988221;28;20042;-85
2024/01/02 10:14:31;;;;;;;6.20;1.90;;;9.30;99.90;;;;;;4975593;28;20061;-84
2024/01/02 10:17:25;;;;;;;6.43;2.00;;;9.40;99.90;;;;;;4982030;28;20046;-87
2024/01/02 10:20:06;;;;;;;9.00;2.20;;;9.40;99.90;;;;;;5019852;28;20057;-84
2024/01/02 10:22:46;;;;;;;3.85;1.40;;;9.40;99.90;;;;;;5016714;28;20393;-82
2024/01/02 10:25:16;;;;;;;10.15;1.40;;;9.40;99.90;;;;;;4996059;28;20215;-82
2024/01/02 10:27:54;;;;;;;8.57;2.08;;;9.40;99.90;;;;;;4986276;28;20073;-82
2024/01/02 10:30:21;;;;;;;7.97;2.35;;;9.40;99.90;;;;;;4980222;28;20042;-86
2024/01/02 10:33:02;;;;;;;14.05;2.97;;;9.40;99.90;;;;;;4982481;28;20054;-86
2024/01/02 10:35:36;;;;;;;11.95;2.63;;;9.50;99.90;;;;;;4980953;28;20039;-82
2024/01/02 10:38:13;;;;;;;9.45;1.98;;;9.50;99.90;;;;;;4979036;28;20104;-85
2024/01/02 10:40:42;;;;;;;7.68;2.95;;;9.50;99.90;;;;;;4981048;28;20974;-85
2024/01/02 10:43:29;;;;;;;10.07;1.55;;;9.50;99.90;;;;;;4964360;28;20096;-85
2024/01/02 10:46:06;;;;;;;7.68;2.28;;;9.50;99.90;;;;;;4981724;28;20065;-86
2024/01/02 10:48:32;;;;;;;10.85;2.60;;;9.50;99.90;;;;;;4980531;28;20189;-81
2024/01/02 10:51:08;;;;;;;5.18;2.03;;;9.50;99.90;;;;;;4980380;28;20125;-83
2024/01/02 10:53:51;;;;;;;3.05;1.38;;;9.60;99.90;;;;;;4980435;28;20076;-86
2024/01/02 10:56:23;;;;;;;6.55;1.85;;;9.50;99.90;;;;;;4985448;28;20050;-81
2024/01/02 10:59:11;;;;;;;6.82;1.58;;;9.50;99.90;;;;;;4967500;28;20053;-83
2024/01/02 11:01:38;;;;;;;7.95;2.30;;;9.60;99.90;;;;;;4978349;28;20054;-83
2024/01/02 11:04:17;;;;;;;9.15;2.35;;;9.60;99.90;;;;;;4984113;28;20492;-82
2024/01/02 11:06:56;;;;;;;10.20;3.00;;;9.60;99.90;;;;;;4999340;28;21435;-80
2024/01/02 11:09:29;;;;;;;8.40;1.17;;;9.60;99.90;;;;;;4992723;28;20042;-82
2024/01/02 11:11:58;;;;;;;7.10;1.92;;;9.50;99.90;;;;;;4987353;28;20347;-86
2024/01/02 11:14:27;;;;;;;9.00;1.42;;;9.60;99.90;;;;;;4984009;28;20109;-86
2024/01/02 11:16:56;;;;;;;7.65;2.28;;;9.60;99.90;;;;;;4986272;28;20050;-81
2024/01/02 11:19:39;;;;;;;3.75;1.63;;;9.60;99.90;;;;;;4985257;28;20048;-85
2024/01/02 11:22:12;;;;;;;14.15;2.67;;;9.60;99.90;;;;;;4991162;28;20293;-82
2024/01/02 11:24:47;;;;;;;4.88;1.40;;;9.60;99.90;;;;;;4996175;28;20047;-84
2024/01/02 11:27:15;;;;;;;8.73;1.77;;;9.60;99.90;;;;;;5016509;28;20069;-85
2024/01/02 11:29:43;;;;;;;5.68;2.13;;;9.60;99.90;;;;;;4997818;28;20100;-83
2024/01/02 11:32:18;;;;;;;9.15;2.40;;;9.60;99.90;;;;;;4993095;28;20084;-85
2024/01/02 11:34:59;;;;;;;7.97;1.58;;;9.60;99.90;;;;;;4989252;28;20050;-81
2024/01/02 11:37:35;;;;;;;8.52;1.73;;;9.60;99.90;;;;;;4983136;28;20055;-85
2024/01/02 11:40:18;;;;;;;18.30;1.85;;;9.60;99.90;;;;;;4993778;28;20386;-85
2024/01/02 11:42:53;;;;;;;8.65;2.33;;;9.70;99.90;;;;;;4992161;28;20046;-82
2024/01/02 11:45:21;;;;;;;5.47;2.17;;;9.60;99.90;;;;;;4972431;28;20049;-83
2024/01/02 11:48:08;;;;;;;8.38;2.97;;;9.70;99.90;;;;;;5001055;28;20052;-85
2024/01/02 11:51:28;;;;;;;6.97;2.15;;;9.70;99.90;;;;;;4984735;28;20042;-80
2024/01/02 11:54:19;;;;;;;10.52;2.17;;;9.70;99.90;;;;;;5008575;28;20050;-86
2024/01/02 11:56:46;;;;;;;4.28;1.67;;;9.70;99.90;;;;;;4980997;28;20050;-86
2024/01/02 11:59:14;;;;;;;10.95;2.78;;;9.70;99.90;;;;;;4984120;28;20054;-86
2024/01/02 12:01:51;;;;;;;7.25;2.33;;;9.70;99.90;;;;;;4991624;28;20050;-86
2024/01/02 12:04:26;;;;;;;6.75;1.50;;;9.70;99.90;;;;;;4970794;28;20061;-82
2024/01/02 12:07:05;;;;;;;6.65;2.40;;;9.70;99.90;;;;;;4985944;28;20045;-81
2024/01/02 12:09:36;;;;;;;12.98;2.08;;;9.70;99.90;;;;;;4998968;28;20488;-84
2024/01/02 12:12:35;;;;;;;7.47;1.85;;;9.70;99.90;;;;;;4987490;28;20092;-84
2024/01/02 12:15:08;;;;;;;8.88;2.17;;;9.70;99.90;;;;;;4983400;28;20133;-85
2024/01/02 12:17:37;;;;;;;;;;;9.70;99.90;;;;;;4996193;28;20062;-87
2024/01/02 12:20:05;;;;;;;9.60;3.53;;;9.70;99.90;;;;;;4984118;28;19921;-85
2024/01/02 12:22:35;;;;;;;14.82;2.67;;;9.70;99.90;;;;;;4996703;28;20069;-84
2024/01/02 12:25:06;;;;;;;9.77;2.42;;;9.70;99.90;;;;;;4983359;28;20089;-86
2024/01/02 12:27:36;;;;;;;8.48;2.58;;;9.70;99.90;;;;;;4983656;28;20046;-87
2024/01/02 12:30:04;;;;;;;8.93;2.90;;;9.70;99.90;;;;;;4983511;28;20074;-87
2024/01/02 12:32:55;;;;;;;7.28;3.00;;;9.70;99.90;;;;;;5015034;28;20038;-87
2024/01/02 12:35:32;;;;;;;8.45;2.20;;;9.70;99.90;;;;;;4984201;28;20087;-85
2024/01/02 12:38:34;;;;;;;7.00;1.95;;;9.70;99.90;;;;;;4982187;28;20037;-85
2024/01/02 12:41:07;;;;;;;12.57;3.75;;;9.70;99.90;;;;;;4964800;28;20050;-82
2024/01/02 12:43:34;;;;;;;15.07;2.30;;;9.60;99.90;;;;;;4984436;28;20129;-81
2024/01/02 12:46:14;;;;;;;10.60;3.65;;;9.60;99.90;;;;;;4985114;28;20042;-83
2024/01/02 12:49:02;;;;;;;10.32;2.35;;;9.60;99.90;;;;;;4998012;28;20057;-80
2024/01/02 12:51:31;;;;;;;11.38;3.20;;;9.60;99.90;;;;;;4983229;28;20050;-88
2024/01/02 12:54:01;;;;;;;6.68;2.08;;;9.60;99.90;;;;;;4992974;28;20041;-82
2024/01/02 12:56:32;;;;;;;13.75;2.95;;;9.60;99.90;;;;;;4983023;28;20122;-80
2024/01/02 12:59:06;;;;;;;7.35;1.73;;;9.60;99.90;;;;;;4980825;28;20109;-79
2024/01/02 13:01:32;;;;;;;12.90;2.75;;;9.60;99.90;;;;;;4982533;28;20046;-79
2024/01/02 13:03:58;;;;;;;18.52;4.75;;;9.50;99.90;;;;;;4983650;28;20089;-79